This is the latest recevied weather packets stored in our database for station/object DO7ZT-13. If no packets are shown the sender has not sent any weather packets the latest 10 day(s).
| Time | Temp. | Humidity | Pressure | Rain* | Wind** | Luminosity | Snow |
|---|---|---|---|---|---|---|---|
| 1777767617 | 16.11° C | 37% | 1016.4 hPa | 0 mm | 1.79 m/s, 160° | - | - |
| 1777764617 | 16.11° C | 35% | 1016.9 hPa | 0 mm | 0.89 m/s, 150° | - | - |
| 1777763105 | 15° C | 39% | 1017 hPa | 0 mm | 1.34 m/s, 150° | - | - |
| 1777761917 | 13.89° C | 40% | 1017.2 hPa | 0 mm | 1.34 m/s, 134° | - | - |
| 1777761317 | 13.89° C | 41% | 1017.2 hPa | 0 mm | 1.34 m/s, 144° | - | - |
| 1777761004 | 12.78° C | 42% | 1017.3 hPa | 0 mm | 1.34 m/s, 138° | - | - |
| 1777760717 | 12.78° C | 42% | 1017.3 hPa | 0 mm | 1.34 m/s, 144° | - | - |
| 1777760116 | 12.78° C | 45% | 1017.2 hPa | 0 mm | 1.34 m/s, 138° | - | - |
| 1777759804 | 12.78° C | 45% | 1017.2 hPa | 0 mm | 1.34 m/s, 132° | - | - |
| 1777757715 | 12.78° C | 47% | 1017.4 hPa | 0 mm | 0.89 m/s, 138° | - | - |
| 1777757403 | 12.22° C | 48% | 1017.4 hPa | 0 mm | 0.89 m/s, 126° | - | - |
| 1777757115 | 12.22° C | 47% | 1017.4 hPa | 0 mm | 0.45 m/s, 114° | - | - |
| 1777756802 | 12.22° C | 49% | 1017.4 hPa | 0 mm | 0.89 m/s, 120° | - | - |
| 1777756515 | 12.78° C | 48% | 1017.7 hPa | 0 mm | 0.89 m/s, 120° | - | - |
| 1777755915 | 12.22° C | 53% | 1017.7 hPa | 0 mm | 0.89 m/s, 144° | - | - |
| 1777755040 | 12.78° C | 46% | 1017.6 hPa | 0 mm | 0.45 m/s, 132° | - | - |
| 1777754102 | 12.22° C | 53% | 1017.6 hPa | 0 mm | 0.89 m/s, 126° | - | - |
| 1777753215 | 12.78° C | 52% | 1017.7 hPa | 0 mm | 0.45 m/s, 126° | - | - |
| 1777752615 | 12.22° C | 51% | 1018 hPa | 0 mm | 0.89 m/s, 138° | - | - |
| 1777752015 | 11.11° C | 55% | 1018 hPa | 0 mm | 0.89 m/s, 132° | - | - |
| 1777751703 | 12.22° C | 52% | 1018 hPa | 0 mm | 0.89 m/s, 166° | - | - |
| 1777751415 | 12.22° C | 54% | 1018 hPa | 0 mm | 0.89 m/s, 132° | - | - |
| 1777751103 | 12.78° C | 54% | 1018.1 hPa | 0 mm | 0.45 m/s, 150° | - | - |
| 1777750502 | 12.22° C | 55% | 1018.1 hPa | 0 mm | 0.45 m/s, 134° | - | - |
| 1777750215 | 12.78° C | 54% | 1018.1 hPa | 0 mm | 0.45 m/s, 134° | - | - |
* Rain latest hour (hover to see other rain measurements)
** Current wind speed in m/s (hover to see current wind gust speed)